sensor_id;sensor_type;location;lat;lon;timestamp;P1;durP1;ratioP1;P2;durP2;ratioP2
19830;SDS011;10076;52.008;4.708;2024-03-08T00:00:07;29.37;;;27.17;;
19830;SDS011;10076;52.008;4.708;2024-03-08T00:02:37;28.23;;;25.97;;
19830;SDS011;10076;52.008;4.708;2024-03-08T00:05:06;30.00;;;27.07;;
19830;SDS011;10076;52.008;4.708;2024-03-08T00:07:34;30.23;;;27.77;;
19830;SDS011;10076;52.008;4.708;2024-03-08T00:10:00;31.80;;;29.33;;
19830;SDS011;10076;52.008;4.708;2024-03-08T00:12:25;30.27;;;27.77;;
19830;SDS011;10076;52.008;4.708;2024-03-08T00:14:52;29.50;;;27.10;;
19830;SDS011;10076;52.008;4.708;2024-03-08T00:17:19;29.77;;;27.33;;
19830;SDS011;10076;52.008;4.708;2024-03-08T00:19:45;29.53;;;27.07;;
19830;SDS011;10076;52.008;4.708;2024-03-08T00:22:10;28.87;;;26.67;;
19830;SDS011;10076;52.008;4.708;2024-03-08T00:24:36;28.87;;;26.57;;
19830;SDS011;10076;52.008;4.708;2024-03-08T00:27:02;28.07;;;25.80;;
19830;SDS011;10076;52.008;4.708;2024-03-08T00:29:29;29.60;;;27.30;;
19830;SDS011;10076;52.008;4.708;2024-03-08T00:31:55;30.53;;;27.87;;
19830;SDS011;10076;52.008;4.708;2024-03-08T00:34:20;29.03;;;26.93;;
19830;SDS011;10076;52.008;4.708;2024-03-08T00:36:45;30.30;;;27.77;;
19830;SDS011;10076;52.008;4.708;2024-03-08T00:39:10;28.80;;;26.60;;
19830;SDS011;10076;52.008;4.708;2024-03-08T00:41:37;30.77;;;27.97;;
19830;SDS011;10076;52.008;4.708;2024-03-08T00:44:02;28.87;;;26.77;;
19830;SDS011;10076;52.008;4.708;2024-03-08T00:46:29;29.97;;;27.57;;
19830;SDS011;10076;52.008;4.708;2024-03-08T00:48:55;29.53;;;27.37;;
19830;SDS011;10076;52.008;4.708;2024-03-08T00:51:21;30.10;;;27.30;;
19830;SDS011;10076;52.008;4.708;2024-03-08T00:53:46;30.07;;;27.87;;
19830;SDS011;10076;52.008;4.708;2024-03-08T00:56:12;30.80;;;28.20;;
19830;SDS011;10076;52.008;4.708;2024-03-08T00:58:37;28.37;;;26.07;;
19830;SDS011;10076;52.008;4.708;2024-03-08T01:01:02;29.10;;;27.00;;
19830;SDS011;10076;52.008;4.708;2024-03-08T01:03:29;30.87;;;28.07;;
19830;SDS011;10076;52.008;4.708;2024-03-08T01:05:56;30.23;;;27.80;;
19830;SDS011;10076;52.008;4.708;2024-03-08T01:08:22;29.37;;;27.13;;
19830;SDS011;10076;52.008;4.708;2024-03-08T01:10:48;29.77;;;27.37;;
19830;SDS011;10076;52.008;4.708;2024-03-08T01:13:16;29.30;;;27.10;;
19830;SDS011;10076;52.008;4.708;2024-03-08T01:15:41;29.80;;;27.53;;
19830;SDS011;10076;52.008;4.708;2024-03-08T01:18:06;31.27;;;28.53;;
19830;SDS011;10076;52.008;4.708;2024-03-08T01:20:32;29.30;;;26.90;;
19830;SDS011;10076;52.008;4.708;2024-03-08T01:22:57;29.90;;;27.57;;
19830;SDS011;10076;52.008;4.708;2024-03-08T01:25:22;31.53;;;29.10;;
19830;SDS011;10076;52.008;4.708;2024-03-08T01:27:48;30.63;;;28.37;;
19830;SDS011;10076;52.008;4.708;2024-03-08T01:30:13;32.97;;;30.00;;
19830;SDS011;10076;52.008;4.708;2024-03-08T01:32:42;29.83;;;27.43;;
19830;SDS011;10076;52.008;4.708;2024-03-08T01:35:08;29.93;;;27.43;;
19830;SDS011;10076;52.008;4.708;2024-03-08T01:37:34;31.80;;;28.70;;
19830;SDS011;10076;52.008;4.708;2024-03-08T01:40:00;29.17;;;27.03;;
19830;SDS011;10076;52.008;4.708;2024-03-08T01:42:25;30.43;;;28.03;;
19830;SDS011;10076;52.008;4.708;2024-03-08T01:44:51;30.93;;;28.37;;
19830;SDS011;10076;52.008;4.708;2024-03-08T01:47:16;31.20;;;28.57;;
19830;SDS011;10076;52.008;4.708;2024-03-08T01:49:43;30.67;;;28.17;;
19830;SDS011;10076;52.008;4.708;2024-03-08T01:52:08;29.97;;;27.73;;
19830;SDS011;10076;52.008;4.708;2024-03-08T01:54:34;30.07;;;27.87;;
19830;SDS011;10076;52.008;4.708;2024-03-08T01:57:01;31.03;;;28.43;;
19830;SDS011;10076;52.008;4.708;2024-03-08T01:59:26;32.73;;;30.10;;
19830;SDS011;10076;52.008;4.708;2024-03-08T02:01:54;33.13;;;30.40;;
19830;SDS011;10076;52.008;4.708;2024-03-08T02:04:20;32.53;;;29.83;;
19830;SDS011;10076;52.008;4.708;2024-03-08T02:06:46;33.63;;;30.80;;
19830;SDS011;10076;52.008;4.708;2024-03-08T02:09:13;32.37;;;30.17;;
19830;SDS011;10076;52.008;4.708;2024-03-08T02:11:38;32.93;;;30.47;;
19830;SDS011;10076;52.008;4.708;2024-03-08T02:14:06;34.63;;;32.13;;
19830;SDS011;10076;52.008;4.708;2024-03-08T02:16:31;32.47;;;30.27;;
19830;SDS011;10076;52.008;4.708;2024-03-08T02:18:57;33.33;;;31.13;;
19830;SDS011;10076;52.008;4.708;2024-03-08T02:21:23;29.90;;;27.73;;
19830;SDS011;10076;52.008;4.708;2024-03-08T02:23:49;31.87;;;29.43;;
19830;SDS011;10076;52.008;4.708;2024-03-08T02:26:17;33.03;;;30.53;;
19830;SDS011;10076;52.008;4.708;2024-03-08T02:28:42;31.40;;;29.00;;
19830;SDS011;10076;52.008;4.708;2024-03-08T02:31:09;31.10;;;28.97;;
19830;SDS011;10076;52.008;4.708;2024-03-08T02:33:34;31.40;;;29.10;;
19830;SDS011;10076;52.008;4.708;2024-03-08T02:36:00;32.27;;;29.93;;
19830;SDS011;10076;52.008;4.708;2024-03-08T02:38:26;31.13;;;28.83;;
19830;SDS011;10076;52.008;4.708;2024-03-08T02:40:52;31.10;;;29.00;;
19830;SDS011;10076;52.008;4.708;2024-03-08T02:43:18;33.47;;;31.13;;
19830;SDS011;10076;52.008;4.708;2024-03-08T02:45:45;32.37;;;29.97;;
19830;SDS011;10076;52.008;4.708;2024-03-08T02:48:11;31.63;;;29.63;;
19830;SDS011;10076;52.008;4.708;2024-03-08T02:50:37;34.30;;;31.13;;
19830;SDS011;10076;52.008;4.708;2024-03-08T02:53:05;31.43;;;29.07;;
19830;SDS011;10076;52.008;4.708;2024-03-08T02:55:30;32.00;;;29.60;;
19830;SDS011;10076;52.008;4.708;2024-03-08T02:57:56;32.13;;;29.33;;
19830;SDS011;10076;52.008;4.708;2024-03-08T03:00:21;32.33;;;29.93;;
19830;SDS011;10076;52.008;4.708;2024-03-08T03:02:48;32.73;;;30.43;;
19830;SDS011;10076;52.008;4.708;2024-03-08T03:05:19;31.70;;;29.37;;
19830;SDS011;10076;52.008;4.708;2024-03-08T03:07:45;32.10;;;29.67;;
19830;SDS011;10076;52.008;4.708;2024-03-08T03:10:10;30.83;;;28.67;;
19830;SDS011;10076;52.008;4.708;2024-03-08T03:12:37;30.77;;;28.73;;
19830;SDS011;10076;52.008;4.708;2024-03-08T03:15:03;30.57;;;28.57;;
19830;SDS011;10076;52.008;4.708;2024-03-08T03:17:29;33.43;;;30.80;;
19830;SDS011;10076;52.008;4.708;2024-03-08T03:19:55;31.63;;;29.63;;
19830;SDS011;10076;52.008;4.708;2024-03-08T03:22:20;32.03;;;29.93;;
19830;SDS011;10076;52.008;4.708;2024-03-08T03:24:46;33.37;;;31.07;;
19830;SDS011;10076;52.008;4.708;2024-03-08T03:27:12;31.53;;;29.43;;
19830;SDS011;10076;52.008;4.708;2024-03-08T03:29:38;33.77;;;31.27;;
19830;SDS011;10076;52.008;4.708;2024-03-08T03:32:07;32.83;;;30.53;;
19830;SDS011;10076;52.008;4.708;2024-03-08T03:34:35;32.90;;;30.60;;
19830;SDS011;10076;52.008;4.708;2024-03-08T03:37:03;32.13;;;29.90;;
19830;SDS011;10076;52.008;4.708;2024-03-08T03:39:29;31.10;;;29.00;;
19830;SDS011;10076;52.008;4.708;2024-03-08T03:41:57;32.00;;;29.90;;
19830;SDS011;10076;52.008;4.708;2024-03-08T03:44:22;32.97;;;30.57;;
19830;SDS011;10076;52.008;4.708;2024-03-08T03:46:48;33.30;;;30.40;;
19830;SDS011;10076;52.008;4.708;2024-03-08T03:49:15;33.23;;;30.60;;
19830;SDS011;10076;52.008;4.708;2024-03-08T03:51:41;33.20;;;31.00;;
19830;SDS011;10076;52.008;4.708;2024-03-08T03:54:06;34.33;;;31.50;;
19830;SDS011;10076;52.008;4.708;2024-03-08T03:56:32;33.50;;;31.07;;
19830;SDS011;10076;52.008;4.708;2024-03-08T03:58:57;31.67;;;29.47;;
19830;SDS011;10076;52.008;4.708;2024-03-08T04:01:23;32.13;;;29.80;;
19830;SDS011;10076;52.008;4.708;2024-03-08T04:03:49;32.87;;;30.67;;
19830;SDS011;10076;52.008;4.708;2024-03-08T04:06:14;31.90;;;29.40;;
19830;SDS011;10076;52.008;4.708;2024-03-08T04:08:40;30.10;;;28.00;;
19830;SDS011;10076;52.008;4.708;2024-03-08T04:11:06;33.10;;;30.53;;
19830;SDS011;10076;52.008;4.708;2024-03-08T04:13:32;32.53;;;30.13;;
19830;SDS011;10076;52.008;4.708;2024-03-08T04:15:57;31.73;;;28.93;;
19830;SDS011;10076;52.008;4.708;2024-03-08T04:18:23;32.07;;;29.70;;
19830;SDS011;10076;52.008;4.708;2024-03-08T04:20:48;32.90;;;30.20;;
19830;SDS011;10076;52.008;4.708;2024-03-08T04:23:14;30.33;;;28.17;;
19830;SDS011;10076;52.008;4.708;2024-03-08T04:25:41;33.83;;;30.80;;
19830;SDS011;10076;52.008;4.708;2024-03-08T04:28:07;31.53;;;29.30;;
19830;SDS011;10076;52.008;4.708;2024-03-08T04:30:32;31.27;;;28.87;;
19830;SDS011;10076;52.008;4.708;2024-03-08T04:32:58;31.03;;;28.80;;
19830;SDS011;10076;52.008;4.708;2024-03-08T04:35:23;33.07;;;30.33;;
19830;SDS011;10076;52.008;4.708;2024-03-08T04:37:49;32.53;;;30.03;;
19830;SDS011;10076;52.008;4.708;2024-03-08T04:40:14;31.43;;;29.03;;
19830;SDS011;10076;52.008;4.708;2024-03-08T04:42:39;32.77;;;30.37;;
19830;SDS011;10076;52.008;4.708;2024-03-08T04:45:08;30.70;;;28.37;;
19830;SDS011;10076;52.008;4.708;2024-03-08T04:47:35;31.27;;;29.17;;
19830;SDS011;10076;52.008;4.708;2024-03-08T04:50:02;33.17;;;30.57;;
19830;SDS011;10076;52.008;4.708;2024-03-08T04:52:27;31.40;;;28.90;;
19830;SDS011;10076;52.008;4.708;2024-03-08T04:54:53;29.83;;;27.77;;
19830;SDS011;10076;52.008;4.708;2024-03-08T04:57:18;31.80;;;29.10;;
19830;SDS011;10076;52.008;4.708;2024-03-08T04:59:44;30.30;;;28.07;;
19830;SDS011;10076;52.008;4.708;2024-03-08T05:02:09;32.07;;;29.83;;
19830;SDS011;10076;52.008;4.708;2024-03-08T05:04:34;31.97;;;29.73;;
19830;SDS011;10076;52.008;4.708;2024-03-08T05:07:00;30.30;;;28.17;;
19830;SDS011;10076;52.008;4.708;2024-03-08T05:09:26;31.57;;;29.30;;
19830;SDS011;10076;52.008;4.708;2024-03-08T05:11:56;31.27;;;29.00;;
19830;SDS011;10076;52.008;4.708;2024-03-08T05:14:23;31.17;;;28.63;;
19830;SDS011;10076;52.008;4.708;2024-03-08T05:16:50;31.37;;;29.13;;
19830;SDS011;10076;52.008;4.708;2024-03-08T05:19:19;32.23;;;29.57;;
19830;SDS011;10076;52.008;4.708;2024-03-08T05:21:45;32.03;;;29.87;;
19830;SDS011;10076;52.008;4.708;2024-03-08T05:24:14;32.00;;;29.23;;
19830;SDS011;10076;52.008;4.708;2024-03-08T05:26:40;29.03;;;27.13;;
19830;SDS011;10076;52.008;4.708;2024-03-08T05:29:06;31.40;;;29.33;;
19830;SDS011;10076;52.008;4.708;2024-03-08T05:31:36;30.23;;;28.03;;
19830;SDS011;10076;52.008;4.708;2024-03-08T05:34:07;32.20;;;29.90;;
19830;SDS011;10076;52.008;4.708;2024-03-08T05:36:35;32.20;;;29.93;;
19830;SDS011;10076;52.008;4.708;2024-03-08T05:39:00;31.93;;;29.23;;
19830;SDS011;10076;52.008;4.708;2024-03-08T05:41:25;32.77;;;30.13;;
19830;SDS011;10076;52.008;4.708;2024-03-08T05:43:51;31.13;;;28.97;;
19830;SDS011;10076;52.008;4.708;2024-03-08T05:46:16;31.50;;;29.30;;
19830;SDS011;10076;52.008;4.708;2024-03-08T05:48:43;32.40;;;29.90;;
19830;SDS011;10076;52.008;4.708;2024-03-08T05:51:08;31.53;;;29.27;;
19830;SDS011;10076;52.008;4.708;2024-03-08T05:53:34;31.10;;;28.83;;
19830;SDS011;10076;52.008;4.708;2024-03-08T05:55:59;32.20;;;29.97;;
19830;SDS011;10076;52.008;4.708;2024-03-08T05:58:27;31.60;;;29.47;;
19830;SDS011;10076;52.008;4.708;2024-03-08T06:00:55;31.13;;;28.93;;
19830;SDS011;10076;52.008;4.708;2024-03-08T06:03:20;32.97;;;30.60;;
19830;SDS011;10076;52.008;4.708;2024-03-08T06:05:46;30.00;;;27.90;;
19830;SDS011;10076;52.008;4.708;2024-03-08T06:08:12;31.00;;;28.60;;
19830;SDS011;10076;52.008;4.708;2024-03-08T06:10:39;30.73;;;28.57;;
19830;SDS011;10076;52.008;4.708;2024-03-08T06:13:05;32.77;;;30.40;;
19830;SDS011;10076;52.008;4.708;2024-03-08T06:15:31;31.67;;;29.13;;
19830;SDS011;10076;52.008;4.708;2024-03-08T06:17:56;31.43;;;28.90;;
19830;SDS011;10076;52.008;4.708;2024-03-08T06:20:22;31.00;;;28.77;;
19830;SDS011;10076;52.008;4.708;2024-03-08T06:22:51;31.10;;;28.43;;
19830;SDS011;10076;52.008;4.708;2024-03-08T06:25:16;31.73;;;28.73;;
19830;SDS011;10076;52.008;4.708;2024-03-08T06:27:42;31.37;;;29.10;;
19830;SDS011;10076;52.008;4.708;2024-03-08T06:30:08;32.43;;;29.93;;
19830;SDS011;10076;52.008;4.708;2024-03-08T06:32:35;31.40;;;28.77;;
19830;SDS011;10076;52.008;4.708;2024-03-08T06:35:03;32.13;;;29.60;;
19830;SDS011;10076;52.008;4.708;2024-03-08T06:37:33;30.90;;;28.53;;
19830;SDS011;10076;52.008;4.708;2024-03-08T06:39:58;30.33;;;28.07;;
19830;SDS011;10076;52.008;4.708;2024-03-08T06:42:25;31.17;;;28.77;;
19830;SDS011;10076;52.008;4.708;2024-03-08T06:44:51;32.30;;;28.93;;
19830;SDS011;10076;52.008;4.708;2024-03-08T06:47:16;29.67;;;27.40;;
19830;SDS011;10076;52.008;4.708;2024-03-08T06:49:42;32.30;;;29.47;;
19830;SDS011;10076;52.008;4.708;2024-03-08T06:52:08;29.57;;;27.43;;
19830;SDS011;10076;52.008;4.708;2024-03-08T06:54:34;29.33;;;27.10;;
19830;SDS011;10076;52.008;4.708;2024-03-08T06:57:05;30.77;;;28.57;;
19830;SDS011;10076;52.008;4.708;2024-03-08T06:59:31;29.60;;;27.37;;
19830;SDS011;10076;52.008;4.708;2024-03-08T07:01:57;30.87;;;28.47;;
19830;SDS011;10076;52.008;4.708;2024-03-08T07:04:24;29.63;;;27.43;;
19830;SDS011;10076;52.008;4.708;2024-03-08T07:06:53;31.07;;;28.57;;
19830;SDS011;10076;52.008;4.708;2024-03-08T07:09:19;30.23;;;28.03;;
19830;SDS011;10076;52.008;4.708;2024-03-08T07:11:44;29.73;;;27.73;;
19830;SDS011;10076;52.008;4.708;2024-03-08T07:14:11;32.00;;;29.27;;
19830;SDS011;10076;52.008;4.708;2024-03-08T07:16:37;32.20;;;29.83;;
19830;SDS011;10076;52.008;4.708;2024-03-08T07:19:04;28.33;;;26.17;;
19830;SDS011;10076;52.008;4.708;2024-03-08T07:21:30;29.87;;;27.37;;
19830;SDS011;10076;52.008;4.708;2024-03-08T07:23:56;28.63;;;26.53;;
19830;SDS011;10076;52.008;4.708;2024-03-08T07:26:24;30.73;;;28.27;;
19830;SDS011;10076;52.008;4.708;2024-03-08T07:28:49;29.97;;;27.67;;
19830;SDS011;10076;52.008;4.708;2024-03-08T07:31:14;28.83;;;26.57;;
19830;SDS011;10076;52.008;4.708;2024-03-08T07:33:40;30.27;;;28.30;;
19830;SDS011;10076;52.008;4.708;2024-03-08T07:36:05;30.90;;;28.60;;
19830;SDS011;10076;52.008;4.708;2024-03-08T07:38:30;30.47;;;28.07;;
19830;SDS011;10076;52.008;4.708;2024-03-08T07:40:55;31.87;;;29.47;;
19830;SDS011;10076;52.008;4.708;2024-03-08T07:43:22;29.53;;;27.07;;
19830;SDS011;10076;52.008;4.708;2024-03-08T07:45:48;29.57;;;27.67;;
19830;SDS011;10076;52.008;4.708;2024-03-08T07:48:17;30.57;;;28.07;;
19830;SDS011;10076;52.008;4.708;2024-03-08T07:50:43;29.77;;;27.67;;
19830;SDS011;10076;52.008;4.708;2024-03-08T07:53:09;29.40;;;27.40;;
19830;SDS011;10076;52.008;4.708;2024-03-08T07:55:34;30.17;;;28.07;;
19830;SDS011;10076;52.008;4.708;2024-03-08T07:58:03;31.37;;;28.73;;
19830;SDS011;10076;52.008;4.708;2024-03-08T08:00:29;31.07;;;28.47;;
19830;SDS011;10076;52.008;4.708;2024-03-08T08:02:56;29.30;;;27.37;;
19830;SDS011;10076;52.008;4.708;2024-03-08T08:05:21;28.20;;;25.90;;
19830;SDS011;10076;52.008;4.708;2024-03-08T08:07:47;30.40;;;28.10;;
19830;SDS011;10076;52.008;4.708;2024-03-08T08:10:12;30.10;;;27.77;;
19830;SDS011;10076;52.008;4.708;2024-03-08T08:12:48;27.97;;;26.07;;
19830;SDS011;10076;52.008;4.708;2024-03-08T08:15:13;28.53;;;26.43;;
19830;SDS011;10076;52.008;4.708;2024-03-08T08:17:43;27.40;;;25.60;;
19830;SDS011;10076;52.008;4.708;2024-03-08T08:20:10;26.60;;;24.67;;
19830;SDS011;10076;52.008;4.708;2024-03-08T08:22:39;29.47;;;27.43;;
19830;SDS011;10076;52.008;4.708;2024-03-08T08:25:08;28.13;;;26.17;;
19830;SDS011;10076;52.008;4.708;2024-03-08T08:27:35;30.10;;;27.53;;
19830;SDS011;10076;52.008;4.708;2024-03-08T08:30:01;26.63;;;24.67;;
19830;SDS011;10076;52.008;4.708;2024-03-08T08:32:33;28.83;;;26.83;;
19830;SDS011;10076;52.008;4.708;2024-03-08T08:35:02;29.00;;;26.63;;
19830;SDS011;10076;52.008;4.708;2024-03-08T08:37:29;27.90;;;25.90;;
19830;SDS011;10076;52.008;4.708;2024-03-08T08:39:54;27.13;;;24.93;;
19830;SDS011;10076;52.008;4.708;2024-03-08T08:42:20;26.37;;;24.13;;
19830;SDS011;10076;52.008;4.708;2024-03-08T08:44:45;25.37;;;23.47;;
19830;SDS011;10076;52.008;4.708;2024-03-08T08:47:11;26.03;;;23.97;;
19830;SDS011;10076;52.008;4.708;2024-03-08T08:49:38;26.00;;;23.40;;
19830;SDS011;10076;52.008;4.708;2024-03-08T08:52:03;23.10;;;21.57;;
19830;SDS011;10076;52.008;4.708;2024-03-08T08:54:29;26.03;;;23.63;;
19830;SDS011;10076;52.008;4.708;2024-03-08T08:56:54;25.03;;;22.70;;
19830;SDS011;10076;52.008;4.708;2024-03-08T08:59:20;24.23;;;22.33;;
19830;SDS011;10076;52.008;4.708;2024-03-08T09:01:45;22.90;;;21.10;;
19830;SDS011;10076;52.008;4.708;2024-03-08T09:04:15;22.77;;;20.90;;
19830;SDS011;10076;52.008;4.708;2024-03-08T09:06:40;21.90;;;20.30;;
19830;SDS011;10076;52.008;4.708;2024-03-08T09:09:06;22.47;;;20.63;;
19830;SDS011;10076;52.008;4.708;2024-03-08T09:11:34;21.97;;;20.53;;
19830;SDS011;10076;52.008;4.708;2024-03-08T09:13:59;23.37;;;21.07;;
19830;SDS011;10076;52.008;4.708;2024-03-08T09:16:26;20.80;;;19.00;;
19830;SDS011;10076;52.008;4.708;2024-03-08T09:18:51;22.07;;;19.90;;
19830;SDS011;10076;52.008;4.708;2024-03-08T09:21:16;20.77;;;18.93;;
19830;SDS011;10076;52.008;4.708;2024-03-08T09:23:42;20.87;;;18.90;;
19830;SDS011;10076;52.008;4.708;2024-03-08T09:26:09;21.53;;;19.40;;
19830;SDS011;10076;52.008;4.708;2024-03-08T09:28:37;21.23;;;19.23;;
19830;SDS011;10076;52.008;4.708;2024-03-08T09:31:03;18.50;;;16.97;;
19830;SDS011;10076;52.008;4.708;2024-03-08T09:33:30;19.20;;;17.23;;
19830;SDS011;10076;52.008;4.708;2024-03-08T09:35:56;18.97;;;17.43;;
19830;SDS011;10076;52.008;4.708;2024-03-08T09:38:22;18.80;;;16.87;;
19830;SDS011;10076;52.008;4.708;2024-03-08T09:40:49;18.40;;;16.60;;
19830;SDS011;10076;52.008;4.708;2024-03-08T09:43:15;18.80;;;16.87;;
19830;SDS011;10076;52.008;4.708;2024-03-08T09:45:41;18.57;;;16.87;;
19830;SDS011;10076;52.008;4.708;2024-03-08T09:48:10;18.40;;;16.70;;
19830;SDS011;10076;52.008;4.708;2024-03-08T09:50:37;18.67;;;16.93;;
19830;SDS011;10076;52.008;4.708;2024-03-08T09:53:03;19.33;;;17.57;;
19830;SDS011;10076;52.008;4.708;2024-03-08T09:55:29;18.03;;;16.43;;
19830;SDS011;10076;52.008;4.708;2024-03-08T09:57:59;17.90;;;16.13;;
19830;SDS011;10076;52.008;4.708;2024-03-08T10:00:55;17.67;;;15.97;;
19830;SDS011;10076;52.008;4.708;2024-03-08T10:03:26;18.20;;;16.50;;
19830;SDS011;10076;52.008;4.708;2024-03-08T10:05:52;18.00;;;16.33;;
19830;SDS011;10076;52.008;4.708;2024-03-08T10:08:17;17.50;;;16.03;;
19830;SDS011;10076;52.008;4.708;2024-03-08T10:10:42;17.17;;;15.48;;
19830;SDS011;10076;52.008;4.708;2024-03-08T10:13:08;19.55;;;17.48;;
19830;SDS011;10076;52.008;4.708;2024-03-08T10:15:37;22.55;;;16.65;;
19830;SDS011;10076;52.008;4.708;2024-03-08T10:18:05;17.98;;;16.20;;
19830;SDS011;10076;52.008;4.708;2024-03-08T10:20:31;18.15;;;16.25;;
19830;SDS011;10076;52.008;4.708;2024-03-08T10:23:02;18.73;;;16.67;;
19830;SDS011;10076;52.008;4.708;2024-03-08T10:25:30;18.52;;;16.63;;
19830;SDS011;10076;52.008;4.708;2024-03-08T10:27:59;18.30;;;16.50;;
19830;SDS011;10076;52.008;4.708;2024-03-08T10:30:24;19.38;;;17.33;;
19830;SDS011;10076;52.008;4.708;2024-03-08T10:32:49;19.52;;;17.52;;
19830;SDS011;10076;52.008;4.708;2024-03-08T10:35:16;18.13;;;16.42;;
19830;SDS011;10076;52.008;4.708;2024-03-08T10:37:48;19.13;;;17.05;;
19830;SDS011;10076;52.008;4.708;2024-03-08T10:40:18;18.65;;;16.75;;
19830;SDS011;10076;52.008;4.708;2024-03-08T10:42:51;18.63;;;16.70;;
19830;SDS011;10076;52.008;4.708;2024-03-08T10:50:52;18.48;;;16.75;;
19830;SDS011;10076;52.008;4.708;2024-03-08T10:53:18;19.10;;;17.40;;
19830;SDS011;10076;52.008;4.708;2024-03-08T10:55:46;20.23;;;16.85;;
19830;SDS011;10076;52.008;4.708;2024-03-08T10:58:12;18.35;;;16.60;;
19830;SDS011;10076;52.008;4.708;2024-03-08T11:00:40;18.15;;;16.40;;
19830;SDS011;10076;52.008;4.708;2024-03-08T11:03:06;18.30;;;16.45;;
19830;SDS011;10076;52.008;4.708;2024-03-08T11:08:19;18.55;;;16.80;;
19830;SDS011;10076;52.008;4.708;2024-03-08T11:10:48;22.10;;;17.08;;
19830;SDS011;10076;52.008;4.708;2024-03-08T11:13:36;18.73;;;17.00;;
19830;SDS011;10076;52.008;4.708;2024-03-08T11:16:02;18.75;;;16.85;;
19830;SDS011;10076;52.008;4.708;2024-03-08T11:18:32;19.13;;;17.17;;
19830;SDS011;10076;52.008;4.708;2024-03-08T11:21:02;19.45;;;17.48;;
19830;SDS011;10076;52.008;4.708;2024-03-08T11:23:32;18.67;;;16.88;;
19830;SDS011;10076;52.008;4.708;2024-03-08T11:25:58;20.95;;;18.85;;
19830;SDS011;10076;52.008;4.708;2024-03-08T11:28:24;18.20;;;16.45;;
19830;SDS011;10076;52.008;4.708;2024-03-08T11:33:24;19.48;;;17.55;;
19830;SDS011;10076;52.008;4.708;2024-03-08T11:35:52;19.48;;;17.52;;
19830;SDS011;10076;52.008;4.708;2024-03-08T11:38:22;19.40;;;17.52;;
19830;SDS011;10076;52.008;4.708;2024-03-08T11:40:48;18.75;;;16.88;;
19830;SDS011;10076;52.008;4.708;2024-03-08T11:43:16;18.65;;;17.00;;
19830;SDS011;10076;52.008;4.708;2024-03-08T11:45:43;18.30;;;16.42;;
19830;SDS011;10076;52.008;4.708;2024-03-08T11:48:08;18.67;;;16.80;;
19830;SDS011;10076;52.008;4.708;2024-03-08T11:50:33;18.48;;;16.67;;
19830;SDS011;10076;52.008;4.708;2024-03-08T11:53:05;19.65;;;17.50;;
19830;SDS011;10076;52.008;4.708;2024-03-08T11:55:31;18.42;;;16.73;;
19830;SDS011;10076;52.008;4.708;2024-03-08T11:58:03;20.60;;;17.67;;
19830;SDS011;10076;52.008;4.708;2024-03-08T12:00:29;18.95;;;17.05;;
19830;SDS011;10076;52.008;4.708;2024-03-08T12:03:07;19.05;;;17.20;;
19830;SDS011;10076;52.008;4.708;2024-03-08T12:05:34;18.60;;;16.88;;
19830;SDS011;10076;52.008;4.708;2024-03-08T12:08:01;19.02;;;17.20;;
19830;SDS011;10076;52.008;4.708;2024-03-08T12:10:28;18.23;;;16.35;;
19830;SDS011;10076;52.008;4.708;2024-03-08T12:12:54;17.65;;;16.05;;
19830;SDS011;10076;52.008;4.708;2024-03-08T12:15:24;18.45;;;16.65;;
19830;SDS011;10076;52.008;4.708;2024-03-08T12:17:51;19.48;;;17.67;;
19830;SDS011;10076;52.008;4.708;2024-03-08T12:20:21;18.92;;;17.13;;
19830;SDS011;10076;52.008;4.708;2024-03-08T12:22:51;18.98;;;17.10;;
19830;SDS011;10076;52.008;4.708;2024-03-08T12:25:18;18.48;;;16.65;;
19830;SDS011;10076;52.008;4.708;2024-03-08T12:27:45;18.75;;;16.92;;
19830;SDS011;10076;52.008;4.708;2024-03-08T12:30:23;20.33;;;17.83;;
19830;SDS011;10076;52.008;4.708;2024-03-08T12:32:59;18.65;;;16.83;;
19830;SDS011;10076;52.008;4.708;2024-03-08T12:35:26;19.30;;;17.38;;
19830;SDS011;10076;52.008;4.708;2024-03-08T12:37:53;20.92;;;18.77;;
19830;SDS011;10076;52.008;4.708;2024-03-08T12:40:27;21.75;;;18.48;;
19830;SDS011;10076;52.008;4.708;2024-03-08T12:42:54;20.08;;;17.58;;
19830;SDS011;10076;52.008;4.708;2024-03-08T12:45:20;19.48;;;17.48;;
19830;SDS011;10076;52.008;4.708;2024-03-08T12:47:48;20.23;;;17.98;;
19830;SDS011;10076;52.008;4.708;2024-03-08T12:50:18;20.42;;;18.40;;
19830;SDS011;10076;52.008;4.708;2024-03-08T12:52:44;19.98;;;18.00;;
19830;SDS011;10076;52.008;4.708;2024-03-08T12:55:09;20.38;;;18.15;;
19830;SDS011;10076;52.008;4.708;2024-03-08T12:57:35;20.15;;;18.13;;
19830;SDS011;10076;52.008;4.708;2024-03-08T13:00:01;19.40;;;17.60;;
19830;SDS011;10076;52.008;4.708;2024-03-08T13:02:28;19.77;;;17.83;;
19830;SDS011;10076;52.008;4.708;2024-03-08T13:04:55;19.80;;;18.00;;
19830;SDS011;10076;52.008;4.708;2024-03-08T13:07:22;18.83;;;17.10;;
19830;SDS011;10076;52.008;4.708;2024-03-08T13:09:51;19.42;;;17.30;;
19830;SDS011;10076;52.008;4.708;2024-03-08T13:12:19;17.95;;;16.15;;
19830;SDS011;10076;52.008;4.708;2024-03-08T13:14:45;20.23;;;18.33;;
19830;SDS011;10076;52.008;4.708;2024-03-08T13:17:14;19.58;;;17.73;;
19830;SDS011;10076;52.008;4.708;2024-03-08T13:19:40;19.20;;;17.40;;
19830;SDS011;10076;52.008;4.708;2024-03-08T13:22:07;18.55;;;16.95;;
19830;SDS011;10076;52.008;4.708;2024-03-08T13:24:37;18.70;;;17.10;;
19830;SDS011;10076;52.008;4.708;2024-03-08T13:27:03;19.15;;;17.35;;
19830;SDS011;10076;52.008;4.708;2024-03-08T13:29:41;19.60;;;17.25;;
19830;SDS011;10076;52.008;4.708;2024-03-08T13:32:07;19.92;;;18.02;;
19830;SDS011;10076;52.008;4.708;2024-03-08T13:34:36;19.48;;;17.70;;
19830;SDS011;10076;52.008;4.708;2024-03-08T13:37:01;19.35;;;17.52;;
19830;SDS011;10076;52.008;4.708;2024-03-08T13:39:28;19.20;;;17.25;;
19830;SDS011;10076;52.008;4.708;2024-03-08T13:41:56;18.80;;;16.98;;
19830;SDS011;10076;52.008;4.708;2024-03-08T13:44:21;19.10;;;17.40;;
19830;SDS011;10076;52.008;4.708;2024-03-08T13:46:47;19.48;;;17.58;;
19830;SDS011;10076;52.008;4.708;2024-03-08T13:49:12;20.42;;;18.52;;
19830;SDS011;10076;52.008;4.708;2024-03-08T13:51:38;18.50;;;16.67;;
19830;SDS011;10076;52.008;4.708;2024-03-08T13:54:03;19.40;;;17.67;;
19830;SDS011;10076;52.008;4.708;2024-03-08T13:56:31;18.88;;;17.20;;
19830;SDS011;10076;52.008;4.708;2024-03-08T13:58:57;19.63;;;17.52;;
19830;SDS011;10076;52.008;4.708;2024-03-08T14:01:22;19.77;;;17.80;;
19830;SDS011;10076;52.008;4.708;2024-03-08T14:03:48;19.02;;;17.33;;
19830;SDS011;10076;52.008;4.708;2024-03-08T14:06:13;18.98;;;17.25;;
19830;SDS011;10076;52.008;4.708;2024-03-08T14:08:39;18.10;;;16.50;;
19830;SDS011;10076;52.008;4.708;2024-03-08T14:11:04;19.77;;;17.67;;
19830;SDS011;10076;52.008;4.708;2024-03-08T14:13:44;19.13;;;17.42;;
19830;SDS011;10076;52.008;4.708;2024-03-08T14:16:10;19.30;;;17.48;;
19830;SDS011;10076;52.008;4.708;2024-03-08T14:18:36;18.70;;;17.00;;
19830;SDS011;10076;52.008;4.708;2024-03-08T14:21:02;19.90;;;17.85;;
19830;SDS011;10076;52.008;4.708;2024-03-08T14:23:29;19.60;;;17.73;;
19830;SDS011;10076;52.008;4.708;2024-03-08T14:25:54;20.02;;;18.13;;
19830;SDS011;10076;52.008;4.708;2024-03-08T14:28:20;19.70;;;17.60;;